sensor_id;sensor_type;location;lat;lon;timestamp;pressure;altitude;pressure_sealevel;temperature;humidity
50282;BME280;36176;51.506;10.272;2023-02-13T00:00:32;101654.84;;;6.50;99.63
50282;BME280;36176;51.506;10.272;2023-02-13T00:03:00;101657.50;;;6.50;99.61
50282;BME280;36176;51.506;10.272;2023-02-13T00:05:27;101659.22;;;6.48;99.20
50282;BME280;36176;51.506;10.272;2023-02-13T00:07:53;101660.09;;;6.45;99.66
50282;BME280;36176;51.506;10.272;2023-02-13T00:10:20;101654.84;;;6.45;99.81
50282;BME280;36176;51.506;10.272;2023-02-13T00:12:47;101659.22;;;6.46;99.37
50282;BME280;36176;51.506;10.272;2023-02-13T00:15:14;101653.06;;;6.49;99.90
50282;BME280;36176;51.506;10.272;2023-02-13T00:17:41;101649.59;;;6.50;99.71
50282;BME280;36176;51.506;10.272;2023-02-13T00:20:10;101658.34;;;6.50;100.00
50282;BME280;36176;51.506;10.272;2023-02-13T00:22:38;101655.72;;;6.50;99.78
50282;BME280;36176;51.506;10.272;2023-02-13T00:25:06;101646.94;;;6.47;99.41
50282;BME280;36176;51.506;10.272;2023-02-13T00:27:33;101651.28;;;6.42;99.27
50282;BME280;36176;51.506;10.272;2023-02-13T00:30:01;101653.91;;;6.38;99.86
50282;BME280;36176;51.506;10.272;2023-02-13T00:32:28;101653.91;;;6.38;99.97
50282;BME280;36176;51.506;10.272;2023-02-13T00:34:55;101653.91;;;6.38;99.57
50282;BME280;36176;51.506;10.272;2023-02-13T00:37:22;101655.66;;;6.36;99.74
50282;BME280;36176;51.506;10.272;2023-02-13T00:39:49;101650.38;;;6.36;99.89
50282;BME280;36176;51.506;10.272;2023-02-13T00:42:16;101647.78;;;6.35;99.87
50282;BME280;36176;51.506;10.272;2023-02-13T00:44:43;101649.50;;;6.36;100.00
50282;BME280;36176;51.506;10.272;2023-02-13T00:47:10;101649.53;;;6.37;100.00
50282;BME280;36176;51.506;10.272;2023-02-13T00:49:40;101650.41;;;6.38;99.96
50282;BME280;36176;51.506;10.272;2023-02-13T00:52:07;101659.19;;;6.35;99.56
50282;BME280;36176;51.506;10.272;2023-02-13T00:54:34;101653.00;;;6.30;100.00
50282;BME280;36176;51.506;10.272;2023-02-13T00:57:01;101659.13;;;6.28;99.82
50282;BME280;36176;51.506;10.272;2023-02-13T00:59:28;101660.88;;;6.27;99.97
50282;BME280;36176;51.506;10.272;2023-02-13T01:01:55;101653.00;;;6.29;100.00
50282;BME280;36176;51.506;10.272;2023-02-13T01:04:22;101655.66;;;6.30;100.00
50282;BME280;36176;51.506;10.272;2023-02-13T01:06:49;101664.44;;;6.32;100.00
50282;BME280;36176;51.506;10.272;2023-02-13T01:09:16;101657.41;;;6.33;100.00
50282;BME280;36176;51.506;10.272;2023-02-13T01:11:43;101652.13;;;6.30;100.00
50282;BME280;36176;51.506;10.272;2023-02-13T01:14:10;101658.22;;;6.24;100.00
50282;BME280;36176;51.506;10.272;2023-02-13T01:16:37;101652.94;;;6.20;100.00
50282;BME280;36176;51.506;10.272;2023-02-13T01:19:04;101656.44;;;6.14;100.00
50282;BME280;36176;51.506;10.272;2023-02-13T01:21:31;101650.25;;;6.12;100.00
50282;BME280;36176;51.506;10.272;2023-02-13T01:24:02;101655.50;;;6.10;100.00
50282;BME280;36176;51.506;10.272;2023-02-13T01:26:29;101659.03;;;6.09;100.00
50282;BME280;36176;51.506;10.272;2023-02-13T01:28:56;101658.16;;;6.09;100.00
50282;BME280;36176;51.506;10.272;2023-02-13T01:31:24;101658.13;;;6.10;100.00
50282;BME280;36176;51.506;10.272;2023-02-13T01:33:54;101657.28;;;6.13;100.00
50282;BME280;36176;51.506;10.272;2023-02-13T01:36:21;101652.03;;;6.17;100.00
50282;BME280;36176;51.506;10.272;2023-02-13T01:38:51;101655.56;;;6.16;100.00
50282;BME280;36176;51.506;10.272;2023-02-13T01:41:19;101643.25;;;6.14;100.00
50282;BME280;36176;51.506;10.272;2023-02-13T01:43:49;101649.38;;;6.13;100.00
50282;BME280;36176;51.506;10.272;2023-02-13T01:46:21;101649.41;;;6.11;100.00
50282;BME280;36176;51.506;10.272;2023-02-13T01:48:50;101645.00;;;6.12;100.00
50282;BME280;36176;51.506;10.272;2023-02-13T01:51:23;101646.75;;;6.13;100.00
50282;BME280;36176;51.506;10.272;2023-02-13T01:53:57;101644.13;;;6.13;100.00
50282;BME280;36176;51.506;10.272;2023-02-13T01:56:30;101637.13;;;6.16;100.00
50282;BME280;36176;51.506;10.272;2023-02-13T01:59:01;101638.91;;;6.21;100.00
50282;BME280;36176;51.506;10.272;2023-02-13T02:01:29;101633.66;;;6.24;100.00
50282;BME280;36176;51.506;10.272;2023-02-13T02:04:10;101633.66;;;6.22;100.00
50282;BME280;36176;51.506;10.272;2023-02-13T02:06:43;101632.75;;;6.18;100.00
50282;BME280;36176;51.506;10.272;2023-02-13T02:09:21;101632.75;;;6.15;100.00
50282;BME280;36176;51.506;10.272;2023-02-13T02:11:54;101637.97;;;6.12;100.00
50282;BME280;36176;51.506;10.272;2023-02-13T02:14:25;101632.75;;;6.17;100.00
50282;BME280;36176;51.506;10.272;2023-02-13T02:16:52;101626.63;;;6.21;100.00
50282;BME280;36176;51.506;10.272;2023-02-13T02:19:40;101627.50;;;6.20;100.00
50282;BME280;36176;51.506;10.272;2023-02-13T02:28:00;101622.22;;;6.18;100.00
50282;BME280;36176;51.506;10.272;2023-02-13T02:33:45;101615.22;;;6.21;100.00
50282;BME280;36176;51.506;10.272;2023-02-13T02:36:45;101607.31;;;6.22;100.00
50282;BME280;36176;51.506;10.272;2023-02-13T02:39:35;101613.50;;;6.23;100.00
50282;BME280;36176;51.506;10.272;2023-02-13T02:42:34;101624.03;;;6.23;100.00
50282;BME280;36176;51.506;10.272;2023-02-13T02:45:13;101616.97;;;6.20;100.00
50282;BME280;36176;51.506;10.272;2023-02-13T02:48:02;101614.34;;;6.18;100.00
50282;BME280;36176;51.506;10.272;2023-02-13T02:51:07;101612.56;;;6.19;100.00
50282;BME280;36176;51.506;10.272;2023-02-13T02:53:43;101616.94;;;6.17;100.00
50282;BME280;36176;51.506;10.272;2023-02-13T02:56:20;101608.19;;;6.18;100.00
50282;BME280;36176;51.506;10.272;2023-02-13T02:59:00;101613.44;;;6.16;100.00
50282;BME280;36176;51.506;10.272;2023-02-13T03:01:48;101609.03;;;6.12;100.00
50282;BME280;36176;51.506;10.272;2023-02-13T03:04:39;101609.91;;;6.10;100.00
50282;BME280;36176;51.506;10.272;2023-02-13T03:07:26;101611.66;;;6.09;100.00
50282;BME280;36176;51.506;10.272;2023-02-13T03:10:00;101609.91;;;6.10;100.00
50282;BME280;36176;51.506;10.272;2023-02-13T03:12:53;101613.41;;;6.06;100.00
50282;BME280;36176;51.506;10.272;2023-02-13T03:15:43;101619.53;;;6.06;100.00
50282;BME280;36176;51.506;10.272;2023-02-13T03:18:36;101613.34;;;6.00;100.00
50282;BME280;36176;51.506;10.272;2023-02-13T03:21:39;101615.09;;;5.97;100.00
50282;BME280;36176;51.506;10.272;2023-02-13T03:24:27;101608.94;;;5.95;100.00
50282;BME280;36176;51.506;10.272;2023-02-13T03:27:11;101603.63;;;5.92;100.00
50282;BME280;36176;51.506;10.272;2023-02-13T03:29:50;101601.88;;;5.91;100.00
50282;BME280;36176;51.506;10.272;2023-02-13T03:32:41;101608.88;;;5.89;100.00
50282;BME280;36176;51.506;10.272;2023-02-13T03:41:16;101609.72;;;5.82;100.00
50282;BME280;36176;51.506;10.272;2023-02-13T03:46:40;101608.78;;;5.75;100.00
50282;BME280;36176;51.506;10.272;2023-02-13T03:49:14;101613.13;;;5.72;100.00
50282;BME280;36176;51.506;10.272;2023-02-13T03:52:06;101607.84;;;5.66;100.00
50282;BME280;36176;51.506;10.272;2023-02-13T03:57:28;101613.00;;;5.55;100.00
50282;BME280;36176;51.506;10.272;2023-02-13T04:00:17;101616.47;;;5.48;100.00
50282;BME280;36176;51.506;10.272;2023-02-13T04:03:07;101608.56;;;5.48;100.00
50282;BME280;36176;51.506;10.272;2023-02-13T04:05:42;101612.06;;;5.44;100.00
50282;BME280;36176;51.506;10.272;2023-02-13T04:08:10;101603.28;;;5.43;100.00
50282;BME280;36176;51.506;10.272;2023-02-13T04:10:46;101604.13;;;5.39;100.00
50282;BME280;36176;51.506;10.272;2023-02-13T04:13:28;101618.13;;;5.35;100.00
50282;BME280;36176;51.506;10.272;2023-02-13T04:16:09;101607.59;;;5.35;100.00
50282;BME280;36176;51.506;10.272;2023-02-13T04:18:37;101609.34;;;5.33;100.00
50282;BME280;36176;51.506;10.272;2023-02-13T04:21:06;101611.91;;;5.28;100.00
50282;BME280;36176;51.506;10.272;2023-02-13T04:23:34;101617.13;;;5.24;100.00
50282;BME280;36176;51.506;10.272;2023-02-13T04:26:06;101617.09;;;5.19;100.00
50282;BME280;36176;51.506;10.272;2023-02-13T04:28:33;101620.53;;;5.12;100.00
50282;BME280;36176;51.506;10.272;2023-02-13T04:31:00;101619.66;;;5.10;100.00
50282;BME280;36176;51.506;10.272;2023-02-13T04:33:29;101615.28;;;5.12;100.00
50282;BME280;36176;51.506;10.272;2023-02-13T04:35:56;101616.13;;;5.09;100.00
50282;BME280;36176;51.506;10.272;2023-02-13T04:38:23;101625.78;;;5.10;100.00
50282;BME280;36176;51.506;10.272;2023-02-13T04:40:50;101612.63;;;5.09;100.00
50282;BME280;36176;51.506;10.272;2023-02-13T04:43:17;101611.75;;;5.08;100.00
50282;BME280;36176;51.506;10.272;2023-02-13T04:45:47;101616.97;;;5.05;100.00
50282;BME280;36176;51.506;10.272;2023-02-13T04:48:14;101623.97;;;5.03;100.00
50282;BME280;36176;51.506;10.272;2023-02-13T04:50:41;101617.78;;;4.98;100.00
50282;BME280;36176;51.506;10.272;2023-02-13T04:53:08;101619.47;;;4.93;100.00
50282;BME280;36176;51.506;10.272;2023-02-13T04:55:36;101619.41;;;4.87;100.00
50282;BME280;36176;51.506;10.272;2023-02-13T04:58:03;101614.97;;;4.83;100.00
50282;BME280;36176;51.506;10.272;2023-02-13T05:00:30;101621.94;;;4.78;100.00
50282;BME280;36176;51.506;10.272;2023-02-13T05:03:07;101617.47;;;4.71;100.00
50282;BME280;36176;51.506;10.272;2023-02-13T05:05:34;101613.97;;;4.70;100.00
50282;BME280;36176;51.506;10.272;2023-02-13T05:08:02;101617.47;;;4.67;100.00
50282;BME280;36176;51.506;10.272;2023-02-13T05:10:29;101614.75;;;4.61;100.00
50282;BME280;36176;51.506;10.272;2023-02-13T05:12:57;101621.72;;;4.58;100.00
50282;BME280;36176;51.506;10.272;2023-02-13T05:15:24;101617.31;;;4.55;100.00
50282;BME280;36176;51.506;10.272;2023-02-13T05:17:51;101621.66;;;4.53;100.00
50282;BME280;36176;51.506;10.272;2023-02-13T05:20:18;101618.13;;;4.51;100.00
50282;BME280;36176;51.506;10.272;2023-02-13T05:22:47;101622.50;;;4.51;100.00
50282;BME280;36176;51.506;10.272;2023-02-13T05:25:33;101618.09;;;4.46;100.00
50282;BME280;36176;51.506;10.272;2023-02-13T05:28:01;101622.47;;;4.46;100.00
50282;BME280;36176;51.506;10.272;2023-02-13T05:30:29;101623.31;;;4.43;100.00
50282;BME280;36176;51.506;10.272;2023-02-13T05:32:56;101620.63;;;4.40;100.00
50282;BME280;36176;51.506;10.272;2023-02-13T05:35:23;101619.75;;;4.40;100.00
50282;BME280;36176;51.506;10.272;2023-02-13T05:37:51;101616.22;;;4.38;100.00
50282;BME280;36176;51.506;10.272;2023-02-13T05:40:18;101625.91;;;4.42;100.00
50282;BME280;36176;51.506;10.272;2023-02-13T05:42:47;101619.78;;;4.41;100.00
50282;BME280;36176;51.506;10.272;2023-02-13T05:45:14;101624.13;;;4.39;100.00
50282;BME280;36176;51.506;10.272;2023-02-13T05:47:41;101621.50;;;4.39;100.00
50282;BME280;36176;51.506;10.272;2023-02-13T05:50:09;101628.47;;;4.36;100.00
50282;BME280;36176;51.506;10.272;2023-02-13T05:52:36;101621.41;;;4.32;100.00
50282;BME280;36176;51.506;10.272;2023-02-13T05:55:03;101626.66;;;4.33;100.00
50282;BME280;36176;51.506;10.272;2023-02-13T05:57:30;101628.47;;;4.36;100.00
50282;BME280;36176;51.506;10.272;2023-02-13T05:59:58;101627.59;;;4.37;100.00
50282;BME280;36176;51.506;10.272;2023-02-13T06:02:25;101631.97;;;4.38;100.00
50282;BME280;36176;51.506;10.272;2023-02-13T06:04:52;101639.00;;;4.39;100.00
50282;BME280;36176;51.506;10.272;2023-02-13T06:07:19;101647.75;;;4.39;100.00
50282;BME280;36176;51.506;10.272;2023-02-13T06:09:45;101637.28;;;4.42;100.00
50282;BME280;36176;51.506;10.272;2023-02-13T06:12:12;101639.13;;;4.48;100.00
50282;BME280;36176;51.506;10.272;2023-02-13T06:14:39;101647.00;;;4.50;99.81
50282;BME280;36176;51.506;10.272;2023-02-13T06:17:06;101646.06;;;4.47;100.00
50282;BME280;36176;51.506;10.272;2023-02-13T06:19:36;101650.47;;;4.47;99.89
50282;BME280;36176;51.506;10.272;2023-02-13T06:22:03;101649.59;;;4.46;100.00
50282;BME280;36176;51.506;10.272;2023-02-13T06:24:30;101652.22;;;4.46;99.74
50282;BME280;36176;51.506;10.272;2023-02-13T06:26:57;101653.94;;;4.47;100.00
50282;BME280;36176;51.506;10.272;2023-02-13T06:29:24;101656.63;;;4.51;100.00
50282;BME280;36176;51.506;10.272;2023-02-13T06:31:51;101653.16;;;4.52;99.75
50282;BME280;36176;51.506;10.272;2023-02-13T06:34:18;101654.00;;;4.52;100.00
50282;BME280;36176;51.506;10.272;2023-02-13T06:36:46;101660.19;;;4.56;100.00
50282;BME280;36176;51.506;10.272;2023-02-13T06:39:13;101663.72;;;4.59;100.00
50282;BME280;36176;51.506;10.272;2023-02-13T06:41:40;101670.69;;;4.57;99.35
50282;BME280;36176;51.506;10.272;2023-02-13T06:44:08;101669.84;;;4.58;99.68
50282;BME280;36176;51.506;10.272;2023-02-13T06:46:35;101670.72;;;4.59;100.00
50282;BME280;36176;51.506;10.272;2023-02-13T06:49:02;101672.44;;;4.57;99.96
50282;BME280;36176;51.506;10.272;2023-02-13T06:51:29;101667.25;;;4.60;100.00
50282;BME280;36176;51.506;10.272;2023-02-13T06:53:56;101669.03;;;4.64;99.87
50282;BME280;36176;51.506;10.272;2023-02-13T06:56:23;101669.09;;;4.68;99.71
50282;BME280;36176;51.506;10.272;2023-02-13T06:58:52;101674.34;;;4.67;99.92
50282;BME280;36176;51.506;10.272;2023-02-13T07:01:19;101669.03;;;4.64;99.94
50282;BME280;36176;51.506;10.272;2023-02-13T07:03:46;101677.72;;;4.58;99.66
50282;BME280;36176;51.506;10.272;2023-02-13T07:06:20;101677.72;;;4.58;99.78
50282;BME280;36176;51.506;10.272;2023-02-13T07:08:47;101677.78;;;4.64;99.65
50282;BME280;36176;51.506;10.272;2023-02-13T07:11:18;101678.75;;;4.71;99.16
50282;BME280;36176;51.506;10.272;2023-02-13T07:13:45;101676.06;;;4.66;99.58
50282;BME280;36176;51.506;10.272;2023-02-13T07:16:13;101676.97;;;4.68;99.44
50282;BME280;36176;51.506;10.272;2023-02-13T07:18:40;101680.53;;;4.74;99.93
50282;BME280;36176;51.506;10.272;2023-02-13T07:21:07;101690.19;;;4.76;99.13
50282;BME280;36176;51.506;10.272;2023-02-13T07:23:34;101682.34;;;4.78;99.01
50282;BME280;36176;51.506;10.272;2023-02-13T07:26:01;101678.03;;;4.81;99.20
50282;BME280;36176;51.506;10.272;2023-02-13T07:28:28;101685.06;;;4.84;98.95
50282;BME280;36176;51.506;10.272;2023-02-13T07:30:55;101678.97;;;4.89;98.74
50282;BME280;36176;51.506;10.272;2023-02-13T07:33:23;101683.38;;;4.92;98.91
50282;BME280;36176;51.506;10.272;2023-02-13T07:35:51;101683.34;;;4.90;98.58
50282;BME280;36176;51.506;10.272;2023-02-13T07:38:18;101680.75;;;4.92;98.84
50282;BME280;36176;51.506;10.272;2023-02-13T07:40:45;101682.56;;;4.98;99.29
50282;BME280;36176;51.506;10.272;2023-02-13T07:43:14;101693.19;;;5.05;98.43
50282;BME280;36176;51.506;10.272;2023-02-13T07:45:41;101691.44;;;5.07;98.14
50282;BME280;36176;51.506;10.272;2023-02-13T07:48:08;101692.34;;;5.08;98.33
50282;BME280;36176;51.506;10.272;2023-02-13T07:50:35;101693.22;;;5.08;98.09
50282;BME280;36176;51.506;10.272;2023-02-13T07:53:02;101693.19;;;5.05;98.71
50282;BME280;36176;51.506;10.272;2023-02-13T07:55:29;101693.19;;;5.07;98.82
50282;BME280;36176;51.506;10.272;2023-02-13T07:57:59;101688.88;;;5.14;98.68
50282;BME280;36176;51.506;10.272;2023-02-13T08:00:26;101687.16;;;5.16;98.59
50282;BME280;36176;51.506;10.272;2023-02-13T08:02:53;101679.31;;;5.20;98.38
50282;BME280;36176;51.506;10.272;2023-02-13T08:05:22;101678.47;;;5.26;98.08
50282;BME280;36176;51.506;10.272;2023-02-13T08:07:49;101675.88;;;5.29;97.65
50282;BME280;36176;51.506;10.272;2023-02-13T08:10:16;101676.78;;;5.31;97.78
50282;BME280;36176;51.506;10.272;2023-02-13T08:13:03;101684.72;;;5.34;97.88
50282;BME280;36176;51.506;10.272;2023-02-13T08:15:30;101682.03;;;5.29;97.70
50282;BME280;36176;51.506;10.272;2023-02-13T08:17:57;101689.91;;;5.31;97.42
50282;BME280;36176;51.506;10.272;2023-02-13T08:20:28;101688.22;;;5.36;97.84
50282;BME280;36176;51.506;10.272;2023-02-13T08:23:04;101690.88;;;5.41;97.67
50282;BME280;36176;51.506;10.272;2023-02-13T08:25:32;101686.56;;;5.44;97.30
50282;BME280;36176;51.506;10.272;2023-02-13T08:27:59;101688.34;;;5.47;96.39
50282;BME280;36176;51.506;10.272;2023-02-13T08:30:27;101682.25;;;5.51;96.91
50282;BME280;36176;51.506;10.272;2023-02-13T08:32:54;101680.53;;;5.58;96.61
50282;BME280;36176;51.506;10.272;2023-02-13T08:35:22;101686.72;;;5.61;96.42
50282;BME280;36176;51.506;10.272;2023-02-13T08:37:52;101683.09;;;5.53;97.40
50282;BME280;36176;51.506;10.272;2023-02-13T08:40:20;101687.53;;;5.57;97.65
50282;BME280;36176;51.506;10.272;2023-02-13T08:42:50;101687.63;;;5.69;97.66
50282;BME280;36176;51.506;10.272;2023-02-13T08:45:20;101685.91;;;5.71;97.02
50282;BME280;36176;51.506;10.272;2023-02-13T08:47:46;101682.44;;;5.72;97.09
50282;BME280;36176;51.506;10.272;2023-02-13T08:50:13;101678.91;;;5.73;96.48
50282;BME280;36176;51.506;10.272;2023-02-13T08:52:41;101688.56;;;5.76;97.05
50282;BME280;36176;51.506;10.272;2023-02-13T08:55:08;101686.88;;;5.83;96.92
50282;BME280;36176;51.506;10.272;2023-02-13T08:57:35;101681.69;;;5.92;96.80
50282;BME280;36176;51.506;10.272;2023-02-13T09:00:02;101688.78;;;6.01;96.70
50282;BME280;36176;51.506;10.272;2023-02-13T09:02:30;101687.91;;;6.03;96.42
50282;BME280;36176;51.506;10.272;2023-02-13T09:04:57;101696.72;;;6.05;96.45
50282;BME280;36176;51.506;10.272;2023-02-13T09:07:24;101690.56;;;6.05;96.28
50282;BME280;36176;51.506;10.272;2023-02-13T09:09:51;101693.22;;;6.05;95.99
50282;BME280;36176;51.506;10.272;2023-02-13T09:12:18;101693.16;;;6.00;95.70
50282;BME280;36176;51.506;10.272;2023-02-13T09:14:46;101688.75;;;5.96;95.61
50282;BME280;36176;51.506;10.272;2023-02-13T09:17:13;101687.03;;;6.00;96.04
50282;BME280;36176;51.506;10.272;2023-02-13T09:19:44;101682.63;;;5.97;95.28
50282;BME280;36176;51.506;10.272;2023-02-13T09:22:12;101687.91;;;6.00;95.43
50282;BME280;36176;51.506;10.272;2023-02-13T09:24:41;101689.69;;;6.04;95.40
50282;BME280;36176;51.506;10.272;2023-02-13T09:27:08;101686.22;;;6.07;94.95
50282;BME280;36176;51.506;10.272;2023-02-13T09:29:35;101690.66;;;6.14;95.02
50282;BME280;36176;51.506;10.272;2023-02-13T09:32:03;101688.88;;;6.13;95.22
50282;BME280;36176;51.506;10.272;2023-02-13T09:34:31;101697.66;;;6.12;95.53
50282;BME280;36176;51.506;10.272;2023-02-13T09:36:57;101696.78;;;6.14;95.81
50282;BME280;36176;51.506;10.272;2023-02-13T09:39:24;101695.06;;;6.18;95.19
50282;BME280;36176;51.506;10.272;2023-02-13T09:41:54;101688.91;;;6.19;94.73
50282;BME280;36176;51.506;10.272;2023-02-13T09:44:36;101700.41;;;6.30;95.31
50282;BME280;36176;51.506;10.272;2023-02-13T09:50:06;101698.69;;;6.38;94.64
50282;BME280;36176;51.506;10.272;2023-02-13T09:52:38;101708.34;;;6.38;94.11
50282;BME280;36176;51.506;10.272;2023-02-13T09:55:32;101703.09;;;6.39;93.89
50282;BME280;36176;51.506;10.272;2023-02-13T09:58:18;101699.63;;;6.47;93.96
50282;BME280;36176;51.506;10.272;2023-02-13T10:00:52;101697.00;;;6.53;93.55
50282;BME280;36176;51.506;10.272;2023-02-13T10:03:41;101704.91;;;6.56;93.72
50282;BME280;36176;51.506;10.272;2023-02-13T10:06:31;101703.22;;;6.67;93.32
50282;BME280;36176;51.506;10.272;2023-02-13T10:17:40;101711.16;;;6.73;91.87
50282;BME280;36176;51.506;10.272;2023-02-13T10:23:07;101706.78;;;6.81;91.57
50282;BME280;36176;51.506;10.272;2023-02-13T10:25:49;101702.44;;;6.90;92.10
50282;BME280;36176;51.506;10.272;2023-02-13T10:28:27;101705.09;;;6.93;91.24
50282;BME280;36176;51.506;10.272;2023-02-13T10:31:03;101698.91;;;6.83;90.98
50282;BME280;36176;51.506;10.272;2023-02-13T10:33:43;101699.78;;;6.85;90.96
50282;BME280;36176;51.506;10.272;2023-02-13T10:36:19;101695.41;;;6.96;91.54
50282;BME280;36176;51.506;10.272;2023-02-13T10:38:55;101697.19;;;6.99;90.68
50282;BME280;36176;51.506;10.272;2023-02-13T10:41:42;101695.44;;;7.09;91.30
50282;BME280;36176;51.506;10.272;2023-02-13T10:52:41;101686.66;;;7.16;89.32
50282;BME280;36176;51.506;10.272;2023-02-13T10:55:33;101686.69;;;7.20;89.53
50282;BME280;36176;51.506;10.272;2023-02-13T10:58:09;101687.59;;;7.27;89.71
50282;BME280;36176;51.506;10.272;2023-02-13T11:03:33;101674.41;;;7.27;88.81
50282;BME280;36176;51.506;10.272;2023-02-13T11:06:05;101679.69;;;7.33;89.16
50282;BME280;36176;51.506;10.272;2023-02-13T11:08:34;101677.06;;;7.33;88.87
50282;BME280;36176;51.506;10.272;2023-02-13T11:11:01;101670.91;;;7.39;88.77
50282;BME280;36176;51.506;10.272;2023-02-13T11:13:28;101661.25;;;7.38;88.47
50282;BME280;36176;51.506;10.272;2023-02-13T11:18:31;101663.00;;;7.43;89.52
50282;BME280;36176;51.506;10.272;2023-02-13T11:21:06;101655.09;;;7.57;89.08
50282;BME280;36176;51.506;10.272;2023-02-13T11:23:52;101653.34;;;7.72;87.75
50282;BME280;36176;51.506;10.272;2023-02-13T11:26:26;101655.97;;;7.84;87.56
50282;BME280;36176;51.506;10.272;2023-02-13T11:28:56;101653.31;;;7.87;87.36
50282;BME280;36176;51.506;10.272;2023-02-13T11:31:27;101655.06;;;7.89;87.01
50282;BME280;36176;51.506;10.272;2023-02-13T11:33:56;101649.78;;;7.89;86.29
50282;BME280;36176;51.506;10.272;2023-02-13T11:36:26;101654.19;;;7.89;85.66
50282;BME280;36176;51.506;10.272;2023-02-13T11:39:00;101653.28;;;7.95;85.86
50282;BME280;36176;51.506;10.272;2023-02-13T11:41:29;101654.16;;;8.15;86.69
50282;BME280;36176;51.506;10.272;2023-02-13T11:43:58;101647.94;;;8.36;86.16
50282;BME280;36176;51.506;10.272;2023-02-13T11:46:42;101644.38;;;8.45;85.47
50282;BME280;36176;51.506;10.272;2023-02-13T11:49:18;101644.31;;;8.63;86.15
50282;BME280;36176;51.506;10.272;2023-02-13T11:51:48;101642.56;;;8.62;83.93
50282;BME280;36176;51.506;10.272;2023-02-13T11:54:32;101642.66;;;8.45;82.76
50282;BME280;36176;51.506;10.272;2023-02-13T11:57:21;101636.50;;;8.43;82.90
50282;BME280;36176;51.506;10.272;2023-02-13T11:59:54;101636.44;;;8.49;82.76
50282;BME280;36176;51.506;10.272;2023-02-13T12:02:46;101638.22;;;8.55;82.68
50282;BME280;36176;51.506;10.272;2023-02-13T12:05:20;101642.56;;;8.59;82.59
50282;BME280;36176;51.506;10.272;2023-02-13T12:07:56;101643.41;;;8.70;82.38
50282;BME280;36176;51.506;10.272;2023-02-13T12:10:35;101639.78;;;8.90;81.75
50282;BME280;36176;51.506;10.272;2023-02-13T12:15:38;101629.03;;;9.16;81.49
50282;BME280;36176;51.506;10.272;2023-02-13T12:18:29;101621.94;;;9.21;81.43
50282;BME280;36176;51.506;10.272;2023-02-13T12:24:02;101616.72;;;9.15;80.24
50282;BME280;36176;51.506;10.272;2023-02-13T12:26:37;101618.41;;;9.27;79.66
50282;BME280;36176;51.506;10.272;2023-02-13T12:37:54;101593.56;;;9.42;78.36
50282;BME280;36176;51.506;10.272;2023-02-13T12:40:42;101597.94;;;9.49;79.10
50282;BME280;36176;51.506;10.272;2023-02-13T12:43:21;101602.19;;;9.62;78.97
50282;BME280;36176;51.506;10.272;2023-02-13T12:46:05;101587.69;;;10.01;82.34
50282;BME280;36176;51.506;10.272;2023-02-13T12:49:00;101571.25;;;10.49;78.15
50282;BME280;36176;51.506;10.272;2023-02-13T13:03:27;101558.06;;;11.05;75.55
50282;BME280;36176;51.506;10.272;2023-02-13T13:08:49;101554.13;;;10.73;73.41
50282;BME280;36176;51.506;10.272;2023-02-13T13:11:32;101551.75;;;10.53;73.45
50282;BME280;36176;51.506;10.272;2023-02-13T13:14:45;101545.63;;;10.50;74.48
50282;BME280;36176;51.506;10.272;2023-02-13T13:17:42;101542.88;;;10.56;73.43
50282;BME280;36176;51.506;10.272;2023-02-13T13:22:52;101543.31;;;10.20;73.47
50282;BME280;36176;51.506;10.272;2023-02-13T13:25:31;101544.50;;;9.93;72.84
50282;BME280;36176;51.506;10.272;2023-02-13T13:28:03;101548.38;;;9.63;74.42
50282;BME280;36176;51.506;10.272;2023-02-13T13:30:35;101542.19;;;9.64;75.66
50282;BME280;36176;51.506;10.272;2023-02-13T13:33:10;101540.41;;;9.66;74.84
50282;BME280;36176;51.506;10.272;2023-02-13T13:35:41;101546.75;;;9.50;75.00
50282;BME280;36176;51.506;10.272;2023-02-13T13:38:17;101540.59;;;9.48;75.10
50282;BME280;36176;51.506;10.272;2023-02-13T13:41:17;101541.50;;;9.45;75.06
50282;BME280;36176;51.506;10.272;2023-02-13T13:44:09;101537.22;;;9.30;75.26
50282;BME280;36176;51.506;10.272;2023-02-13T13:46:56;101537.31;;;9.21;76.71
50282;BME280;36176;51.506;10.272;2023-02-13T13:49:49;101540.00;;;9.16;76.52
50282;BME280;36176;51.506;10.272;2023-02-13T13:52:27;101531.28;;;9.04;76.95
50282;BME280;36176;51.506;10.272;2023-02-13T13:54:57;101524.31;;;8.92;76.74
50282;BME280;36176;51.506;10.272;2023-02-13T13:57:57;101527.03;;;8.83;77.76
50282;BME280;36176;51.506;10.272;2023-02-13T14:07:56;101528.16;;;8.45;79.07
50282;BME280;36176;51.506;10.272;2023-02-13T14:20:41;101519.47;;;8.21;82.08
50282;BME280;36176;51.506;10.272;2023-02-13T14:23:32;101505.38;;;8.16;83.01
50282;BME280;36176;51.506;10.272;2023-02-13T14:26:18;101503.66;;;8.10;83.18
50282;BME280;36176;51.506;10.272;2023-02-13T14:34:07;101502.81;;;8.02;83.91
50282;BME280;36176;51.506;10.272;2023-02-13T14:36:45;101496.69;;;7.96;84.27
50282;BME280;36176;51.506;10.272;2023-02-13T14:39:27;101502.84;;;7.90;84.50
50282;BME280;36176;51.506;10.272;2023-02-13T14:44:31;101502.00;;;7.82;84.85
50282;BME280;36176;51.506;10.272;2023-02-13T14:47:03;101506.44;;;7.78;85.38
50282;BME280;36176;51.506;10.272;2023-02-13T14:49:34;101507.31;;;7.70;85.56
50282;BME280;36176;51.506;10.272;2023-02-13T14:52:27;101499.41;;;7.65;86.26
50282;BME280;36176;51.506;10.272;2023-02-13T14:55:06;101500.31;;;7.64;86.29
50282;BME280;36176;51.506;10.272;2023-02-13T14:57:38;101492.41;;;7.59;86.34
50282;BME280;36176;51.506;10.272;2023-02-13T15:05:52;101493.31;;;7.41;86.38